sensor_id;sensor_type;location;lat;lon;timestamp;P1;durP1;ratioP1;P2;durP2;ratioP2
22320;SDS011;11328;53.928;18.522;2023-04-06T00:00:59;38.20;;;20.33;;
22320;SDS011;11328;53.928;18.522;2023-04-06T00:03:26;37.15;;;19.83;;
22320;SDS011;11328;53.928;18.522;2023-04-06T00:05:53;39.90;;;20.17;;
22320;SDS011;11328;53.928;18.522;2023-04-06T00:08:20;36.45;;;17.15;;
22320;SDS011;11328;53.928;18.522;2023-04-06T00:10:49;32.95;;;17.65;;
22320;SDS011;11328;53.928;18.522;2023-04-06T00:13:16;33.72;;;17.20;;
22320;SDS011;11328;53.928;18.522;2023-04-06T00:15:43;32.00;;;16.42;;
22320;SDS011;11328;53.928;18.522;2023-04-06T00:18:10;29.08;;;14.98;;
22320;SDS011;11328;53.928;18.522;2023-04-06T00:20:37;26.27;;;13.88;;
22320;SDS011;11328;53.928;18.522;2023-04-06T00:23:04;34.17;;;16.20;;
22320;SDS011;11328;53.928;18.522;2023-04-06T00:25:31;41.33;;;17.95;;
22320;SDS011;11328;53.928;18.522;2023-04-06T00:27:58;34.40;;;16.52;;
22320;SDS011;11328;53.928;18.522;2023-04-06T00:30:25;40.08;;;18.45;;
22320;SDS011;11328;53.928;18.522;2023-04-06T00:32:52;37.53;;;17.50;;
22320;SDS011;11328;53.928;18.522;2023-04-06T00:35:19;41.65;;;16.73;;
22320;SDS011;11328;53.928;18.522;2023-04-06T00:37:46;37.05;;;17.45;;
22320;SDS011;11328;53.928;18.522;2023-04-06T00:40:14;33.78;;;17.77;;
22320;SDS011;11328;53.928;18.522;2023-04-06T00:42:41;34.65;;;17.20;;
22320;SDS011;11328;53.928;18.522;2023-04-06T00:45:09;44.85;;;19.20;;
22320;SDS011;11328;53.928;18.522;2023-04-06T00:47:36;54.35;;;21.40;;
22320;SDS011;11328;53.928;18.522;2023-04-06T00:50:04;56.58;;;22.33;;
22320;SDS011;11328;53.928;18.522;2023-04-06T00:52:31;61.92;;;23.10;;
22320;SDS011;11328;53.928;18.522;2023-04-06T00:55:00;55.53;;;21.92;;
22320;SDS011;11328;53.928;18.522;2023-04-06T00:57:28;53.30;;;20.55;;
22320;SDS011;11328;53.928;18.522;2023-04-06T00:59:57;44.03;;;19.95;;
22320;SDS011;11328;53.928;18.522;2023-04-06T01:02:24;37.40;;;18.67;;
22320;SDS011;11328;53.928;18.522;2023-04-06T01:04:52;34.90;;;17.95;;
22320;SDS011;11328;53.928;18.522;2023-04-06T01:07:20;34.90;;;18.63;;
22320;SDS011;11328;53.928;18.522;2023-04-06T01:09:47;41.42;;;20.17;;
22320;SDS011;11328;53.928;18.522;2023-04-06T01:12:14;32.75;;;17.02;;
22320;SDS011;11328;53.928;18.522;2023-04-06T01:14:41;30.42;;;16.13;;
22320;SDS011;11328;53.928;18.522;2023-04-06T01:17:08;35.97;;;16.52;;
22320;SDS011;11328;53.928;18.522;2023-04-06T01:19:35;31.38;;;16.58;;
22320;SDS011;11328;53.928;18.522;2023-04-06T01:22:03;30.77;;;15.45;;
22320;SDS011;11328;53.928;18.522;2023-04-06T01:24:30;29.35;;;15.90;;
22320;SDS011;11328;53.928;18.522;2023-04-06T01:26:57;28.98;;;15.27;;
22320;SDS011;11328;53.928;18.522;2023-04-06T01:29:24;30.17;;;15.10;;
22320;SDS011;11328;53.928;18.522;2023-04-06T01:31:51;28.65;;;14.95;;
22320;SDS011;11328;53.928;18.522;2023-04-06T01:34:18;25.83;;;14.90;;
22320;SDS011;11328;53.928;18.522;2023-04-06T01:36:45;23.33;;;13.77;;
22320;SDS011;11328;53.928;18.522;2023-04-06T01:39:11;27.23;;;13.63;;
22320;SDS011;11328;53.928;18.522;2023-04-06T01:41:38;24.52;;;13.10;;
22320;SDS011;11328;53.928;18.522;2023-04-06T01:44:05;25.63;;;13.95;;
22320;SDS011;11328;53.928;18.522;2023-04-06T01:46:32;24.75;;;13.77;;
22320;SDS011;11328;53.928;18.522;2023-04-06T01:48:59;25.20;;;13.68;;
22320;SDS011;11328;53.928;18.522;2023-04-06T01:51:26;30.10;;;16.00;;
22320;SDS011;11328;53.928;18.522;2023-04-06T01:53:53;25.67;;;14.68;;
22320;SDS011;11328;53.928;18.522;2023-04-06T01:56:21;28.92;;;15.20;;
22320;SDS011;11328;53.928;18.522;2023-04-06T01:58:48;32.10;;;15.18;;
22320;SDS011;11328;53.928;18.522;2023-04-06T02:01:15;33.33;;;17.27;;
22320;SDS011;11328;53.928;18.522;2023-04-06T02:03:42;36.90;;;17.92;;
22320;SDS011;11328;53.928;18.522;2023-04-06T02:06:09;37.63;;;18.75;;
22320;SDS011;11328;53.928;18.522;2023-04-06T02:08:36;34.25;;;17.85;;
22320;SDS011;11328;53.928;18.522;2023-04-06T02:11:03;32.13;;;17.50;;
22320;SDS011;11328;53.928;18.522;2023-04-06T02:13:30;34.30;;;17.83;;
22320;SDS011;11328;53.928;18.522;2023-04-06T02:15:57;31.38;;;16.60;;
22320;SDS011;11328;53.928;18.522;2023-04-06T02:18:24;32.88;;;18.02;;
22320;SDS011;11328;53.928;18.522;2023-04-06T02:20:51;35.95;;;17.85;;
22320;SDS011;11328;53.928;18.522;2023-04-06T02:23:18;31.98;;;17.15;;
22320;SDS011;11328;53.928;18.522;2023-04-06T02:25:45;34.58;;;17.35;;
22320;SDS011;11328;53.928;18.522;2023-04-06T02:28:12;32.78;;;17.50;;
22320;SDS011;11328;53.928;18.522;2023-04-06T02:30:39;27.52;;;15.35;;
22320;SDS011;11328;53.928;18.522;2023-04-06T02:33:06;31.50;;;16.85;;
22320;SDS011;11328;53.928;18.522;2023-04-06T02:35:32;28.70;;;15.50;;
22320;SDS011;11328;53.928;18.522;2023-04-06T02:37:59;30.45;;;15.45;;
22320;SDS011;11328;53.928;18.522;2023-04-06T02:40:26;26.67;;;15.07;;
22320;SDS011;11328;53.928;18.522;2023-04-06T02:42:53;29.13;;;15.43;;
22320;SDS011;11328;53.928;18.522;2023-04-06T02:45:20;26.50;;;15.23;;
22320;SDS011;11328;53.928;18.522;2023-04-06T02:47:47;31.05;;;15.73;;
22320;SDS011;11328;53.928;18.522;2023-04-06T02:50:14;27.40;;;15.32;;
22320;SDS011;11328;53.928;18.522;2023-04-06T02:52:41;29.48;;;15.13;;
22320;SDS011;11328;53.928;18.522;2023-04-06T02:55:08;29.13;;;15.63;;
22320;SDS011;11328;53.928;18.522;2023-04-06T02:57:35;30.65;;;17.30;;
22320;SDS011;11328;53.928;18.522;2023-04-06T03:00:02;29.45;;;16.25;;
22320;SDS011;11328;53.928;18.522;2023-04-06T03:02:30;26.90;;;14.93;;
22320;SDS011;11328;53.928;18.522;2023-04-06T03:04:57;28.80;;;15.90;;
22320;SDS011;11328;53.928;18.522;2023-04-06T03:07:24;32.97;;;16.83;;
22320;SDS011;11328;53.928;18.522;2023-04-06T03:09:50;30.08;;;16.05;;
22320;SDS011;11328;53.928;18.522;2023-04-06T03:12:17;31.85;;;17.25;;
22320;SDS011;11328;53.928;18.522;2023-04-06T03:14:44;33.85;;;16.63;;
22320;SDS011;11328;53.928;18.522;2023-04-06T03:17:11;30.02;;;17.67;;
22320;SDS011;11328;53.928;18.522;2023-04-06T03:19:38;30.65;;;18.17;;
22320;SDS011;11328;53.928;18.522;2023-04-06T03:22:05;27.98;;;15.75;;
22320;SDS011;11328;53.928;18.522;2023-04-06T03:24:32;27.40;;;16.05;;
22320;SDS011;11328;53.928;18.522;2023-04-06T03:26:59;33.78;;;16.23;;
22320;SDS011;11328;53.928;18.522;2023-04-06T03:29:26;29.83;;;15.27;;
22320;SDS011;11328;53.928;18.522;2023-04-06T03:31:53;30.73;;;15.68;;
22320;SDS011;11328;53.928;18.522;2023-04-06T03:34:20;32.50;;;16.10;;
22320;SDS011;11328;53.928;18.522;2023-04-06T03:36:47;32.53;;;15.93;;
22320;SDS011;11328;53.928;18.522;2023-04-06T03:39:32;33.58;;;16.55;;
22320;SDS011;11328;53.928;18.522;2023-04-06T03:41:59;29.83;;;16.02;;
22320;SDS011;11328;53.928;18.522;2023-04-06T03:44:25;31.20;;;18.20;;
22320;SDS011;11328;53.928;18.522;2023-04-06T03:46:52;33.72;;;19.23;;
22320;SDS011;11328;53.928;18.522;2023-04-06T03:49:19;32.40;;;18.77;;
22320;SDS011;11328;53.928;18.522;2023-04-06T03:51:46;30.55;;;19.17;;
22320;SDS011;11328;53.928;18.522;2023-04-06T03:54:13;58.08;;;22.20;;
22320;SDS011;11328;53.928;18.522;2023-04-06T03:56:41;34.90;;;18.33;;
22320;SDS011;11328;53.928;18.522;2023-04-06T03:59:08;36.60;;;17.40;;
22320;SDS011;11328;53.928;18.522;2023-04-06T04:01:35;33.08;;;17.63;;
22320;SDS011;11328;53.928;18.522;2023-04-06T04:04:02;31.08;;;17.63;;
22320;SDS011;11328;53.928;18.522;2023-04-06T04:06:29;29.48;;;16.27;;
22320;SDS011;11328;53.928;18.522;2023-04-06T04:08:56;34.65;;;17.48;;
22320;SDS011;11328;53.928;18.522;2023-04-06T04:11:23;28.80;;;14.93;;
22320;SDS011;11328;53.928;18.522;2023-04-06T04:13:50;31.98;;;17.08;;
22320;SDS011;11328;53.928;18.522;2023-04-06T04:16:16;28.10;;;15.95;;
22320;SDS011;11328;53.928;18.522;2023-04-06T04:18:43;26.80;;;15.30;;
22320;SDS011;11328;53.928;18.522;2023-04-06T04:21:11;29.90;;;15.70;;
22320;SDS011;11328;53.928;18.522;2023-04-06T04:23:38;33.15;;;16.77;;
22320;SDS011;11328;53.928;18.522;2023-04-06T04:26:05;28.83;;;16.35;;
22320;SDS011;11328;53.928;18.522;2023-04-06T04:28:32;25.73;;;13.32;;
22320;SDS011;11328;53.928;18.522;2023-04-06T04:30:59;27.80;;;13.23;;
22320;SDS011;11328;53.928;18.522;2023-04-06T04:33:26;28.17;;;12.85;;
22320;SDS011;11328;53.928;18.522;2023-04-06T04:35:53;23.70;;;12.55;;
22320;SDS011;11328;53.928;18.522;2023-04-06T04:38:20;24.00;;;12.82;;
22320;SDS011;11328;53.928;18.522;2023-04-06T04:40:47;23.25;;;12.82;;
22320;SDS011;11328;53.928;18.522;2023-04-06T04:43:14;27.63;;;12.60;;
22320;SDS011;11328;53.928;18.522;2023-04-06T04:45:41;31.25;;;12.45;;
22320;SDS011;11328;53.928;18.522;2023-04-06T04:48:08;25.98;;;11.90;;
22320;SDS011;11328;53.928;18.522;2023-04-06T04:50:35;26.65;;;13.35;;
22320;SDS011;11328;53.928;18.522;2023-04-06T04:53:02;29.67;;;14.07;;
22320;SDS011;11328;53.928;18.522;2023-04-06T04:55:32;25.02;;;14.02;;
22320;SDS011;11328;53.928;18.522;2023-04-06T04:57:59;27.42;;;14.73;;
22320;SDS011;11328;53.928;18.522;2023-04-06T05:00:27;22.58;;;13.25;;
22320;SDS011;11328;53.928;18.522;2023-04-06T05:02:54;19.42;;;11.95;;
22320;SDS011;11328;53.928;18.522;2023-04-06T05:05:21;27.13;;;11.20;;
22320;SDS011;11328;53.928;18.522;2023-04-06T05:07:47;25.60;;;11.07;;
22320;SDS011;11328;53.928;18.522;2023-04-06T05:10:14;25.85;;;14.43;;
22320;SDS011;11328;53.928;18.522;2023-04-06T05:12:41;32.90;;;14.00;;
22320;SDS011;11328;53.928;18.522;2023-04-06T05:15:09;28.38;;;11.80;;
22320;SDS011;11328;53.928;18.522;2023-04-06T05:17:36;38.70;;;12.40;;
22320;SDS011;11328;53.928;18.522;2023-04-06T05:20:04;28.48;;;13.13;;
22320;SDS011;11328;53.928;18.522;2023-04-06T05:22:32;26.30;;;13.30;;
22320;SDS011;11328;53.928;18.522;2023-04-06T05:24:58;23.75;;;13.75;;
22320;SDS011;11328;53.928;18.522;2023-04-06T05:27:26;26.63;;;12.80;;
22320;SDS011;11328;53.928;18.522;2023-04-06T05:29:52;25.15;;;13.98;;
22320;SDS011;11328;53.928;18.522;2023-04-06T05:32:22;24.88;;;13.25;;
22320;SDS011;11328;53.928;18.522;2023-04-06T05:34:50;43.95;;;15.20;;
22320;SDS011;11328;53.928;18.522;2023-04-06T05:37:18;28.58;;;14.90;;
22320;SDS011;11328;53.928;18.522;2023-04-06T05:39:45;41.50;;;21.98;;
22320;SDS011;11328;53.928;18.522;2023-04-06T05:42:11;42.13;;;24.17;;
22320;SDS011;11328;53.928;18.522;2023-04-06T05:44:38;32.33;;;16.13;;
22320;SDS011;11328;53.928;18.522;2023-04-06T05:47:06;28.60;;;18.05;;
22320;SDS011;11328;53.928;18.522;2023-04-06T05:49:33;26.90;;;15.32;;
22320;SDS011;11328;53.928;18.522;2023-04-06T05:52:01;26.95;;;14.48;;
22320;SDS011;11328;53.928;18.522;2023-04-06T05:54:28;38.80;;;19.85;;
22320;SDS011;11328;53.928;18.522;2023-04-06T05:56:55;56.97;;;30.80;;
22320;SDS011;11328;53.928;18.522;2023-04-06T05:59:21;38.08;;;20.08;;
22320;SDS011;11328;53.928;18.522;2023-04-06T06:01:50;30.58;;;14.40;;
22320;SDS011;11328;53.928;18.522;2023-04-06T06:04:17;21.02;;;12.43;;
22320;SDS011;11328;53.928;18.522;2023-04-06T06:06:44;28.38;;;13.57;;
22320;SDS011;11328;53.928;18.522;2023-04-06T06:09:11;29.80;;;15.23;;
22320;SDS011;11328;53.928;18.522;2023-04-06T06:11:38;48.80;;;13.95;;
22320;SDS011;11328;53.928;18.522;2023-04-06T06:14:05;33.13;;;15.07;;
22320;SDS011;11328;53.928;18.522;2023-04-06T06:16:32;30.40;;;16.08;;
22320;SDS011;11328;53.928;18.522;2023-04-06T06:18:59;35.85;;;20.83;;
22320;SDS011;11328;53.928;18.522;2023-04-06T06:21:27;33.60;;;18.95;;
22320;SDS011;11328;53.928;18.522;2023-04-06T06:23:53;32.35;;;17.77;;
22320;SDS011;11328;53.928;18.522;2023-04-06T06:26:21;31.75;;;17.50;;
22320;SDS011;11328;53.928;18.522;2023-04-06T06:28:48;41.50;;;18.35;;
22320;SDS011;11328;53.928;18.522;2023-04-06T06:31:15;36.55;;;16.80;;
22320;SDS011;11328;53.928;18.522;2023-04-06T06:33:42;26.98;;;14.43;;
22320;SDS011;11328;53.928;18.522;2023-04-06T06:36:09;22.77;;;11.20;;
22320;SDS011;11328;53.928;18.522;2023-04-06T06:38:36;24.77;;;11.85;;
22320;SDS011;11328;53.928;18.522;2023-04-06T06:41:04;20.92;;;11.32;;
22320;SDS011;11328;53.928;18.522;2023-04-06T06:43:31;17.77;;;9.55;;
22320;SDS011;11328;53.928;18.522;2023-04-06T06:45:58;24.98;;;10.00;;
22320;SDS011;11328;53.928;18.522;2023-04-06T06:48:25;20.90;;;10.95;;
22320;SDS011;11328;53.928;18.522;2023-04-06T06:50:52;24.02;;;10.25;;
22320;SDS011;11328;53.928;18.522;2023-04-06T06:53:20;27.48;;;9.65;;
22320;SDS011;11328;53.928;18.522;2023-04-06T06:55:47;19.60;;;8.52;;
22320;SDS011;11328;53.928;18.522;2023-04-06T06:58:19;16.67;;;7.57;;
22320;SDS011;11328;53.928;18.522;2023-04-06T07:00:47;13.23;;;7.13;;
22320;SDS011;11328;53.928;18.522;2023-04-06T07:03:14;12.52;;;7.00;;
22320;SDS011;11328;53.928;18.522;2023-04-06T07:05:47;12.15;;;5.85;;
22320;SDS011;11328;53.928;18.522;2023-04-06T07:08:19;10.68;;;4.63;;
22320;SDS011;11328;53.928;18.522;2023-04-06T07:10:49;11.68;;;4.75;;
22320;SDS011;11328;53.928;18.522;2023-04-06T07:13:24;10.77;;;4.50;;
22320;SDS011;11328;53.928;18.522;2023-04-06T07:15:53;12.55;;;5.15;;
22320;SDS011;11328;53.928;18.522;2023-04-06T07:18:20;10.15;;;5.15;;
22320;SDS011;11328;53.928;18.522;2023-04-06T07:20:49;9.00;;;5.00;;
22320;SDS011;11328;53.928;18.522;2023-04-06T07:23:16;11.50;;;5.03;;
22320;SDS011;11328;53.928;18.522;2023-04-06T07:25:43;13.43;;;4.53;;
22320;SDS011;11328;53.928;18.522;2023-04-06T07:28:09;10.48;;;4.25;;
22320;SDS011;11328;53.928;18.522;2023-04-06T07:30:37;10.18;;;4.25;;
22320;SDS011;11328;53.928;18.522;2023-04-06T07:33:05;9.15;;;3.83;;
22320;SDS011;11328;53.928;18.522;2023-04-06T07:35:33;9.73;;;4.05;;
22320;SDS011;11328;53.928;18.522;2023-04-06T07:38:01;9.02;;;4.03;;
22320;SDS011;11328;53.928;18.522;2023-04-06T07:40:28;8.88;;;3.70;;
22320;SDS011;11328;53.928;18.522;2023-04-06T07:42:55;10.57;;;4.00;;
22320;SDS011;11328;53.928;18.522;2023-04-06T07:45:23;9.73;;;4.40;;
22320;SDS011;11328;53.928;18.522;2023-04-06T07:47:50;13.60;;;4.20;;
22320;SDS011;11328;53.928;18.522;2023-04-06T07:50:17;9.93;;;4.00;;
22320;SDS011;11328;53.928;18.522;2023-04-06T07:52:44;7.78;;;3.83;;
22320;SDS011;11328;53.928;18.522;2023-04-06T07:55:11;8.88;;;3.92;;
22320;SDS011;11328;53.928;18.522;2023-04-06T07:57:38;9.45;;;3.65;;
22320;SDS011;11328;53.928;18.522;2023-04-06T08:00:05;9.48;;;4.05;;
22320;SDS011;11328;53.928;18.522;2023-04-06T08:02:35;9.77;;;4.18;;
22320;SDS011;11328;53.928;18.522;2023-04-06T08:05:02;19.67;;;4.90;;
22320;SDS011;11328;53.928;18.522;2023-04-06T08:07:30;10.43;;;4.53;;
22320;SDS011;11328;53.928;18.522;2023-04-06T08:09:57;10.40;;;4.63;;
22320;SDS011;11328;53.928;18.522;2023-04-06T08:12:24;10.98;;;5.13;;
22320;SDS011;11328;53.928;18.522;2023-04-06T08:14:51;12.73;;;5.60;;
22320;SDS011;11328;53.928;18.522;2023-04-06T08:17:18;11.52;;;5.35;;
22320;SDS011;11328;53.928;18.522;2023-04-06T08:19:45;11.30;;;5.07;;
22320;SDS011;11328;53.928;18.522;2023-04-06T08:22:12;11.43;;;5.13;;
22320;SDS011;11328;53.928;18.522;2023-04-06T08:24:39;10.88;;;5.10;;
22320;SDS011;11328;53.928;18.522;2023-04-06T08:27:06;12.30;;;4.80;;
22320;SDS011;11328;53.928;18.522;2023-04-06T08:29:33;12.00;;;4.85;;
22320;SDS011;11328;53.928;18.522;2023-04-06T08:32:01;9.70;;;4.20;;
22320;SDS011;11328;53.928;18.522;2023-04-06T08:34:32;10.85;;;5.03;;
22320;SDS011;11328;53.928;18.522;2023-04-06T08:36:59;9.73;;;5.13;;
22320;SDS011;11328;53.928;18.522;2023-04-06T08:39:27;9.75;;;4.30;;
22320;SDS011;11328;53.928;18.522;2023-04-06T08:41:56;10.27;;;5.05;;
22320;SDS011;11328;53.928;18.522;2023-04-06T08:44:26;15.20;;;4.65;;
22320;SDS011;11328;53.928;18.522;2023-04-06T08:46:53;9.85;;;4.53;;
22320;SDS011;11328;53.928;18.522;2023-04-06T08:49:21;42.38;;;5.65;;
22320;SDS011;11328;53.928;18.522;2023-04-06T08:51:49;20.95;;;5.63;;
22320;SDS011;11328;53.928;18.522;2023-04-06T08:54:16;14.45;;;7.18;;
22320;SDS011;11328;53.928;18.522;2023-04-06T08:56:44;12.93;;;6.22;;
22320;SDS011;11328;53.928;18.522;2023-04-06T08:59:11;9.55;;;4.93;;
22320;SDS011;11328;53.928;18.522;2023-04-06T09:01:40;10.18;;;4.63;;
22320;SDS011;11328;53.928;18.522;2023-04-06T09:04:09;9.43;;;4.60;;
22320;SDS011;11328;53.928;18.522;2023-04-06T09:06:39;20.48;;;8.73;;
22320;SDS011;11328;53.928;18.522;2023-04-06T09:09:07;26.25;;;5.80;;
22320;SDS011;11328;53.928;18.522;2023-04-06T09:11:50;15.18;;;5.50;;
22320;SDS011;11328;53.928;18.522;2023-04-06T09:14:34;13.05;;;6.60;;
22320;SDS011;11328;53.928;18.522;2023-04-06T09:17:03;13.02;;;5.43;;
22320;SDS011;11328;53.928;18.522;2023-04-06T09:19:31;11.50;;;4.93;;
22320;SDS011;11328;53.928;18.522;2023-04-06T09:22:02;11.50;;;5.43;;
22320;SDS011;11328;53.928;18.522;2023-04-06T09:25:07;15.25;;;6.80;;
22320;SDS011;11328;53.928;18.522;2023-04-06T09:27:30;21.90;;;11.70;;
22320;SDS011;11328;53.928;18.522;2023-04-06T09:30:17;11.18;;;6.53;;
22320;SDS011;11328;53.928;18.522;2023-04-06T09:32:51;17.88;;;7.10;;
22320;SDS011;11328;53.928;18.522;2023-04-06T09:35:23;24.70;;;9.98;;
22320;SDS011;11328;53.928;18.522;2023-04-06T09:37:53;14.68;;;7.53;;
22320;SDS011;11328;53.928;18.522;2023-04-06T09:40:20;10.90;;;5.60;;
22320;SDS011;11328;53.928;18.522;2023-04-06T09:42:49;11.75;;;5.60;;
22320;SDS011;11328;53.928;18.522;2023-04-06T09:45:19;13.45;;;7.05;;
22320;SDS011;11328;53.928;18.522;2023-04-06T09:47:47;11.35;;;6.38;;
22320;SDS011;11328;53.928;18.522;2023-04-06T09:50:17;15.95;;;8.13;;
22320;SDS011;11328;53.928;18.522;2023-04-06T09:52:50;19.90;;;8.82;;
22320;SDS011;11328;53.928;18.522;2023-04-06T09:55:25;19.83;;;8.50;;
22320;SDS011;11328;53.928;18.522;2023-04-06T09:58:06;21.48;;;10.15;;
22320;SDS011;11328;53.928;18.522;2023-04-06T10:00:51;24.95;;;12.20;;
22320;SDS011;11328;53.928;18.522;2023-04-06T10:06:22;9.70;;;4.72;;
22320;SDS011;11328;53.928;18.522;2023-04-06T10:08:53;11.37;;;4.77;;
22320;SDS011;11328;53.928;18.522;2023-04-06T10:11:22;20.73;;;6.38;;
22320;SDS011;11328;53.928;18.522;2023-04-06T10:13:50;10.82;;;5.22;;
22320;SDS011;11328;53.928;18.522;2023-04-06T10:16:17;8.93;;;4.50;;
22320;SDS011;11328;53.928;18.522;2023-04-06T10:18:46;8.15;;;4.47;;
22320;SDS011;11328;53.928;18.522;2023-04-06T10:21:23;13.57;;;5.85;;
22320;SDS011;11328;53.928;18.522;2023-04-06T10:24:02;12.75;;;6.20;;
22320;SDS011;11328;53.928;18.522;2023-04-06T10:26:37;13.52;;;6.40;;
22320;SDS011;11328;53.928;18.522;2023-04-06T10:29:07;17.63;;;6.50;;
22320;SDS011;11328;53.928;18.522;2023-04-06T10:31:39;14.30;;;6.63;;
22320;SDS011;11328;53.928;18.522;2023-04-06T10:34:09;14.15;;;6.70;;
22320;SDS011;11328;53.928;18.522;2023-04-06T10:36:36;24.52;;;8.35;;
22320;SDS011;11328;53.928;18.522;2023-04-06T10:39:05;13.35;;;5.47;;
22320;SDS011;11328;53.928;18.522;2023-04-06T10:41:33;32.10;;;13.20;;
22320;SDS011;11328;53.928;18.522;2023-04-06T10:44:17;10.45;;;4.63;;
22320;SDS011;11328;53.928;18.522;2023-04-06T10:46:57;19.02;;;6.15;;
22320;SDS011;11328;53.928;18.522;2023-04-06T10:49:29;14.35;;;6.40;;
22320;SDS011;11328;53.928;18.522;2023-04-06T10:51:56;14.15;;;6.00;;
22320;SDS011;11328;53.928;18.522;2023-04-06T10:54:24;19.55;;;7.30;;
22320;SDS011;11328;53.928;18.522;2023-04-06T10:56:54;11.75;;;5.05;;
22320;SDS011;11328;53.928;18.522;2023-04-06T10:59:22;20.60;;;7.22;;
22320;SDS011;11328;53.928;18.522;2023-04-06T11:01:51;17.23;;;7.28;;
22320;SDS011;11328;53.928;18.522;2023-04-06T11:04:20;28.35;;;7.97;;
22320;SDS011;11328;53.928;18.522;2023-04-06T11:06:47;16.55;;;5.93;;
22320;SDS011;11328;53.928;18.522;2023-04-06T11:09:34;15.10;;;6.10;;
22320;SDS011;11328;53.928;18.522;2023-04-06T11:12:02;8.68;;;4.07;;
22320;SDS011;11328;53.928;18.522;2023-04-06T11:14:30;18.13;;;6.63;;
22320;SDS011;11328;53.928;18.522;2023-04-06T11:16:57;11.63;;;4.32;;
22320;SDS011;11328;53.928;18.522;2023-04-06T11:19:24;11.15;;;5.03;;
22320;SDS011;11328;53.928;18.522;2023-04-06T11:21:52;16.15;;;6.20;;
22320;SDS011;11328;53.928;18.522;2023-04-06T11:24:19;15.77;;;6.15;;
22320;SDS011;11328;53.928;18.522;2023-04-06T11:26:50;28.58;;;9.05;;
22320;SDS011;11328;53.928;18.522;2023-04-06T11:29:20;11.80;;;4.75;;
22320;SDS011;11328;53.928;18.522;2023-04-06T11:31:51;10.82;;;4.85;;
22320;SDS011;11328;53.928;18.522;2023-04-06T11:34:24;9.35;;;4.78;;
22320;SDS011;11328;53.928;18.522;2023-04-06T11:36:55;16.65;;;4.40;;
22320;SDS011;11328;53.928;18.522;2023-04-06T11:39:29;12.23;;;5.28;;
22320;SDS011;11328;53.928;18.522;2023-04-06T11:42:00;27.65;;;7.47;;
22320;SDS011;11328;53.928;18.522;2023-04-06T11:47:07;13.52;;;6.03;;
22320;SDS011;11328;53.928;18.522;2023-04-06T11:49:37;9.15;;;4.47;;
22320;SDS011;11328;53.928;18.522;2023-04-06T11:52:25;16.80;;;6.40;;
22320;SDS011;11328;53.928;18.522;2023-04-06T11:54:54;15.23;;;5.00;;
22320;SDS011;11328;53.928;18.522;2023-04-06T11:57:23;17.20;;;5.85;;
22320;SDS011;11328;53.928;18.522;2023-04-06T11:59:51;19.65;;;4.95;;
22320;SDS011;11328;53.928;18.522;2023-04-06T12:02:19;20.58;;;5.60;;
22320;SDS011;11328;53.928;18.522;2023-04-06T12:04:46;10.43;;;4.78;;
22320;SDS011;11328;53.928;18.522;2023-04-06T12:07:13;10.95;;;5.28;;
22320;SDS011;11328;53.928;18.522;2023-04-06T12:09:41;12.75;;;5.13;;
22320;SDS011;11328;53.928;18.522;2023-04-06T12:12:09;13.25;;;4.75;;
22320;SDS011;11328;53.928;18.522;2023-04-06T12:14:36;12.18;;;4.82;;
22320;SDS011;11328;53.928;18.522;2023-04-06T12:17:03;9.63;;;4.40;;
22320;SDS011;11328;53.928;18.522;2023-04-06T12:19:31;10.18;;;4.20;;
22320;SDS011;11328;53.928;18.522;2023-04-06T12:21:58;11.90;;;4.78;;
22320;SDS011;11328;53.928;18.522;2023-04-06T12:24:25;11.32;;;4.80;;
22320;SDS011;11328;53.928;18.522;2023-04-06T12:26:52;12.05;;;4.55;;
22320;SDS011;11328;53.928;18.522;2023-04-06T12:29:34;8.75;;;3.85;;
22320;SDS011;11328;53.928;18.522;2023-04-06T12:32:01;7.95;;;3.63;;
22320;SDS011;11328;53.928;18.522;2023-04-06T12:34:28;9.20;;;3.60;;
22320;SDS011;11328;53.928;18.522;2023-04-06T12:36:56;26.92;;;4.13;;
22320;SDS011;11328;53.928;18.522;2023-04-06T12:39:29;8.95;;;4.22;;
22320;SDS011;11328;53.928;18.522;2023-04-06T12:41:57;7.15;;;3.53;;
22320;SDS011;11328;53.928;18.522;2023-04-06T12:44:24;10.07;;;3.90;;
22320;SDS011;11328;53.928;18.522;2023-04-06T12:46:52;38.42;;;5.05;;
22320;SDS011;11328;53.928;18.522;2023-04-06T12:49:19;10.88;;;3.83;;
22320;SDS011;11328;53.928;18.522;2023-04-06T12:51:46;11.23;;;3.97;;
22320;SDS011;11328;53.928;18.522;2023-04-06T12:54:13;16.40;;;3.90;;
22320;SDS011;11328;53.928;18.522;2023-04-06T12:56:40;7.88;;;3.80;;
22320;SDS011;11328;53.928;18.522;2023-04-06T12:59:07;32.38;;;4.30;;
22320;SDS011;11328;53.928;18.522;2023-04-06T13:01:35;7.53;;;3.10;;
22320;SDS011;11328;53.928;18.522;2023-04-06T13:04:03;7.95;;;3.20;;
22320;SDS011;11328;53.928;18.522;2023-04-06T13:06:30;12.00;;;4.03;;
22320;SDS011;11328;53.928;18.522;2023-04-06T13:08:57;9.20;;;3.70;;
22320;SDS011;11328;53.928;18.522;2023-04-06T13:11:27;8.93;;;3.35;;
22320;SDS011;11328;53.928;18.522;2023-04-06T13:13:54;8.88;;;3.00;;
22320;SDS011;11328;53.928;18.522;2023-04-06T13:16:21;9.35;;;3.58;;
22320;SDS011;11328;53.928;18.522;2023-04-06T13:18:48;6.88;;;3.47;;
22320;SDS011;11328;53.928;18.522;2023-04-06T13:21:16;9.05;;;3.97;;
22320;SDS011;11328;53.928;18.522;2023-04-06T13:23:43;7.10;;;3.60;;
22320;SDS011;11328;53.928;18.522;2023-04-06T13:26:11;23.75;;;4.00;;
22320;SDS011;11328;53.928;18.522;2023-04-06T13:28:40;7.78;;;3.70;;
22320;SDS011;11328;53.928;18.522;2023-04-06T13:31:07;11.05;;;3.75;;
22320;SDS011;11328;53.928;18.522;2023-04-06T13:33:35;7.00;;;3.50;;
22320;SDS011;11328;53.928;18.522;2023-04-06T13:36:04;8.07;;;3.45;;
22320;SDS011;11328;53.928;18.522;2023-04-06T13:38:34;8.40;;;3.55;;
22320;SDS011;11328;53.928;18.522;2023-04-06T13:41:01;11.40;;;3.70;;
22320;SDS011;11328;53.928;18.522;2023-04-06T13:43:28;12.90;;;3.78;;
22320;SDS011;11328;53.928;18.522;2023-04-06T13:45:56;15.68;;;3.38;;
22320;SDS011;11328;53.928;18.522;2023-04-06T13:48:26;15.55;;;4.97;;
22320;SDS011;11328;53.928;18.522;2023-04-06T13:50:53;15.73;;;7.15;;
22320;SDS011;11328;53.928;18.522;2023-04-06T13:53:20;12.10;;;5.88;;
22320;SDS011;11328;53.928;18.522;2023-04-06T13:55:54;46.25;;;9.77;;
22320;SDS011;11328;53.928;18.522;2023-04-06T13:58:22;13.68;;;7.63;;
22320;SDS011;11328;53.928;18.522;2023-04-06T14:00:49;26.92;;;10.63;;
22320;SDS011;11328;53.928;18.522;2023-04-06T14:03:17;10.30;;;4.70;;
22320;SDS011;11328;53.928;18.522;2023-04-06T14:05:45;12.15;;;4.95;;
22320;SDS011;11328;53.928;18.522;2023-04-06T14:08:12;19.38;;;9.15;;
22320;SDS011;11328;53.928;18.522;2023-04-06T14:10:42;11.30;;;5.07;;
22320;SDS011;11328;53.928;18.522;2023-04-06T14:13:09;43.70;;;5.55;;
22320;SDS011;11328;53.928;18.522;2023-04-06T14:15:36;13.70;;;5.90;;
22320;SDS011;11328;53.928;18.522;2023-04-06T14:18:03;14.02;;;6.18;;
22320;SDS011;11328;53.928;18.522;2023-04-06T14:20:33;18.48;;;5.85;;
22320;SDS011;11328;53.928;18.522;2023-04-06T14:23:01;23.33;;;9.77;;
22320;SDS011;11328;53.928;18.522;2023-04-06T14:25:28;8.82;;;3.05;;
22320;SDS011;11328;53.928;18.522;2023-04-06T14:28:01;24.43;;;3.60;;